Flight Track Log - Related Links

Times and Time Zones

All times are in EDT time to prevent confusion due to time zone crossing. See the BWA481 flight status page for this flight to view local times or setup timezone preferences in your user account.

Time Position Orientation Groundspeed Altitude Reporting Facility
EDT Latitude Longitude Course Direction KTS MPH feet Rate Location/Type
Sat 06:18:51 PM 26.0750 -80.1319 91° East 175 201 800  Level Miami Center
Sat 06:23:50 PM 26.0667 -79.7294 106° East 298 343 12,500 2,390 Climbing Miami Center
Sat 06:24:50 PM 26.0397 -79.6225 108° East 328 377 15,100 2,650 Climbing Miami Center
Sat 06:25:50 PM 26.0081 -79.5131 105° East 352 405 17,800 2,450 Climbing Miami Center
Sat 06:26:50 PM 25.9789 -79.3944 99° East 377 434 20,000 2,250 Climbing Miami Center
Sat 06:27:50 PM 25.9603 -79.2694 99° East 393 452 22,300 2,250 Climbing Miami Center
Sat 06:28:50 PM 25.9414 -79.1419 116° Southeast 405 466 24,500 1,950 Climbing Miami Center
Sat 06:29:50 PM 25.8867 -79.0183 124° Southeast 418 481 26,200 1,664 Climbing Miami Center
Sat 06:30:49 PM 25.8092 -78.8925 117° Southeast 435 501 27,800 1,500 Climbing Miami Center
Sat 06:31:50 PM 25.7503 -78.7622 121° Southeast 455 524 29,200 1,488 Climbing Miami Center
Sat 06:32:50 PM 25.6808 -78.6342 119° Southeast 476 548 30,800 1,550 Climbing Miami Center
Sat 06:33:50 PM 25.6133 -78.5019 120° Southeast 481 554 32,300 1,400 Climbing Miami Center
Sat 06:34:50 PM 25.5458 -78.3744 121° Southeast 486 559 33,600 1,250 Climbing Miami Center
Sat 06:35:50 PM 25.4739 -78.2444 119° Southeast 486 559 34,800 1,300 Climbing Miami Center
Sat 06:36:50 PM 25.4103 -78.1150 122° Southeast 486 559 36,200 1,250 Climbing Miami Center
Sat 06:37:50 PM 25.3403 -77.9900 120° Southeast 481 554 37,300 900 Climbing Miami Center
Sat 06:38:50 PM 25.2744 -77.8631 120° Southeast 481 554 38,000 706 Climbing Miami Center
Sat 06:39:49 PM 25.2061 -77.7339 120° Southeast 481 554 38,700 500 Climbing Miami Center
Sat 06:40:50 PM 25.1400 -77.6072 119° Southeast 481 554 39,000 149 Climbing Miami Center
Sat 06:41:50 PM 25.0778 -77.4853 122° Southeast 487 560 39,000  Level Miami Center
Sat 06:42:49 PM 25.0072 -77.3586 122° Southeast 493 567 39,000  Level Miami Center
Sat 06:43:50 PM 24.9344 -77.2278 121° Southeast 500 575 39,000  Level Miami Center
Sat 06:44:50 PM 24.8639 -77.0969 121° Southeast 495 570 39,000  Level Miami Center
Sat 06:45:50 PM 24.7928 -76.9686 121° Southeast 495 570 39,000  Level Miami Center
Sat 06:46:50 PM 24.7197 -76.8358 120° Southeast 495 570 39,000  Level Miami Center
Sat 06:47:49 PM 24.6506 -76.7056 122° Southeast 495 570 39,000  Level Miami Center
Sat 06:48:49 PM 24.5772 -76.5756 120° Southeast 495 570 39,000  Level Miami Center
Sat 06:49:50 PM 24.5058 -76.4408 121° Southeast 495 570 39,000  Level Miami Center
Sat 06:50:50 PM 24.4344 -76.3111 120° Southeast 495 570 39,000  Level Miami Center
Sat 06:51:50 PM 24.3650 -76.1814 121° Southeast 489 563 39,000  Level Miami Center
Sat 06:52:50 PM 24.2933 -76.0494 122° Southeast 494 568 39,000  Level Miami Center
Sat 06:53:50 PM 24.2192 -75.9178 121° Southeast 499 574 39,000  Level Miami Center
Sat 06:54:50 PM 24.1472 -75.7886 120° Southeast 499 574 39,000  Level Miami Center
Sat 06:55:50 PM 24.0753 -75.6547 122° Southeast 499 574 39,000  Level Miami Center
Sat 06:56:50 PM 24.0031 -75.5258 122° Southeast 499 574 39,000  Level Miami Center
Sat 06:57:49 PM 23.9286 -75.3947 121° Southeast 499 574 39,000  Level Miami Center
Sat 06:58:50 PM 23.8542 -75.2617 122° Southeast 499 574 39,000  Level Miami Center
Sat 06:59:50 PM 23.7733 -75.1197 122° Southeast 504 580 39,000  Level Miami Center
Sat 07:00:50 PM 23.6986 -74.9892 122° Southeast 504 580 39,000  Level Miami Center
Sat 07:01:50 PM 23.6217 -74.8564 121° Southeast 509 586 39,000  Level Miami Center
Sat 07:02:50 PM 23.5508 -74.7283 123° Southeast 509 586 39,000  Level Miami Center
Sat 07:03:50 PM 23.4736 -74.5983 121° Southeast 509 586 39,000  Level Miami Center
Sat 07:04:50 PM 23.4028 -74.4706 122° Southeast 504 580 39,000  Level Miami Center
Sat 07:05:50 PM 23.3297 -74.3431 121° Southeast 504 580 39,000  Level Miami Center
Sat 07:06:50 PM 23.2586 -74.2156 122° Southeast 493 567 39,000  Level Miami Center
Sat 07:07:50 PM 23.1831 -74.0858 122° Southeast 493 567 39,000  Level Miami Center
Sat 07:08:49 PM 23.1097 -73.9589 123° Southeast 493 567 39,000  Level Miami Center
Sat 07:09:50 PM 23.0339 -73.8319 120° Southeast 493 567 39,000  Level Miami Center
Sat 07:10:50 PM 22.9667 -73.7072 124° Southeast 488 562 39,000  Level Miami Center
Sat 07:11:50 PM 22.8889 -73.5806 122° Southeast 493 567 39,000  Level Miami Center
Sat 07:12:50 PM 22.8169 -73.4539 122° Southeast 498 573 39,000  Level Miami Center
Sat 07:13:50 PM 22.7431 -73.3253 124° Southeast 498 573 39,000  Level Miami Center
Sat 07:14:50 PM 22.6669 -73.2014 121° Southeast 492 566 39,000  Level Miami Center
Sat 07:15:50 PM 22.6036 -73.0864 122° Southeast 492 566 39,000  Level Miami Center
Sat 07:16:50 PM 22.5317 -72.9625 126° Southeast 492 566 39,000  Level Miami Center
Sat 07:17:49 PM 22.4511 -72.8414 124° Southeast 492 566 39,000  Level Miami Center
Sat 07:18:50 PM 22.3728 -72.7181 125° Southeast 498 573 39,000  Level Miami Center
Sat 07:19:50 PM 22.2942 -72.5950 125° Southeast 498 573 39,000  Level Miami Center
Sat 07:20:50 PM 22.2133 -72.4719 125° Southeast 498 573 39,000  Level Miami Center
Sat 07:21:50 PM 22.1347 -72.3514 125° Southeast 503 579 39,000  Level Miami Center
Sat 07:22:50 PM 22.0558 -72.2286 124° Southeast 503 579 39,000  Level Miami Center
Sat 07:23:50 PM 21.9792 -72.1083 125° Southeast 497 572 39,000  Level Miami Center
Sat 07:24:50 PM 21.9000 -71.9858 125° Southeast 497 572 39,000  Level Miami Center
Sat 07:25:50 PM 21.8211 -71.8658 125° Southeast 497 572 39,000  Level Miami Center
Sat 07:26:50 PM 21.7419 -71.7439 125° Southeast 497 572 39,000  Level Miami Center
Sat 07:27:50 PM 21.6628 -71.6242 125° Southeast 497 572 39,000  Level Miami Center
Sat 07:28:50 PM 21.5858 -71.5067 125° Southeast 497 572 39,000  Level Miami Center
Sat 07:29:50 PM 21.5064 -71.3850 126° Southeast 497 572 39,000  Level Miami Center
Sat 07:30:50 PM 21.4269 -71.2681 126° Southeast 491 565 39,000  Level Miami Center
Sat 07:31:50 PM 21.3367 -71.1358 125° Southeast 491 565 39,000  Level Miami Center
Sat 07:32:50 PM 21.2569 -71.0125 124° Southeast 447 514 39,000  Level Miami Center
Sat 07:33:50 PM 21.1814 -70.8936 126° Southeast 465 535 39,000  Level Miami Center
Sat 07:34:50 PM 21.1017 -70.7747 125° Southeast 482 555 39,000  Level Miami Center
Sat 07:35:50 PM 21.0219 -70.6542 126° Southeast 494 568 39,000  Level Miami Center
Sat 07:36:50 PM 20.9419 -70.5356 125° Southeast 494 568 39,000  Level Miami Center
Sat 07:37:50 PM 20.8619 -70.4153 125° Southeast 494 568 39,000  Level Miami Center
Sat 07:38:50 PM 20.7842 -70.2969 126° Southeast 494 568 39,000  Level Miami Center
Sat 07:39:50 PM 20.7061 -70.1811 126° Southeast 494 568 39,000  Level Miami Center
Sat 07:40:50 PM 20.6261 -70.0633 124° Southeast 489 563 39,000  Level Miami Center
Sat 07:41:50 PM 20.5478 -69.9411 127° Southeast 489 563 39,000  Level Miami Center
Sat 07:42:50 PM 20.4653 -69.8239 125° Southeast 489 563 39,000  Level Miami Center
Sat 07:43:50 PM 20.3872 -69.7061 127° Southeast 489 563 39,000  Level Miami Center
Sat 07:44:50 PM 20.3044 -69.5869 125° Southeast 489 563 39,000  Level Miami Center
Sat 07:45:50 PM 20.2239 -69.4656 125° Southeast 494 568 39,000  Level Miami Center
Sat 07:46:50 PM 20.1453 -69.3439 127° Southeast 494 568 39,000  Level Miami Center
Sat 07:47:50 PM 20.0625 -69.2250 126° Southeast 499 574 39,000  Level Miami Center
Sat 07:48:49 PM 19.9817 -69.1083 126° Southeast 504 580 39,000  Level Miami Center
Sat 07:49:50 PM 19.8986 -68.9875 127° Southeast 499 574 39,000  Level Miami Center
Sat 07:50:50 PM 19.8158 -68.8714 128° Southeast 504 580 39,000  Level Miami Center
Sat 07:51:50 PM 19.7308 -68.7553 130° Southeast 504 580 39,000  Level Miami Center
Sat 07:52:50 PM 19.6461 -68.6483 125° Southeast 499 574 39,000  Level Miami Center
Sat 07:53:50 PM 19.5672 -68.5300 128° Southeast 489 563 39,000  Level Miami Center
Sat 07:54:50 PM 19.4842 -68.4164 128° Southeast 489 563 39,000  Level Miami Center
Sat 07:55:50 PM 19.4033 -68.3072 128° Southeast 489 563 39,000  Level Miami Center
Sat 07:56:50 PM 19.3383 -68.2192 130° Southeast 489 563 39,000  Level Miami Center
Sat 07:57:50 PM 19.2356 -68.0878 128° Southeast 489 563 39,000  Level Miami Center
Sat 07:58:50 PM 19.1544 -67.9789 132° Southeast 489 563 39,000  Level Miami Center
Sat 07:59:49 PM 19.0678 -67.8772 137° Southeast 479 551 39,000  Level Miami Center
Sat 08:00:50 PM 18.9731 -67.7850 137° Southeast 474 545 39,000  Level Miami Center
Sat 08:01:50 PM 18.8786 -67.6928 142° Southeast 468 539 39,000  Level Miami Center
Sat 08:02:59 PM 18.7667 -67.6000 137° Southeast 470 541 39,000  Level San Juan Center
Sat 08:04:00 PM 18.6667 -67.5000 142° Southeast 470 541 39,000  Level San Juan Center
Sat 08:05:00 PM 18.5667 -67.4167 137° Southeast 480 552 39,000  Level San Juan Center
Sat 08:06:00 PM 18.4667 -67.3167 142° Southeast 470 541 39,000  Level San Juan Center
Sat 08:07:01 PM 18.3667 -67.2333 136° Southeast 480 552 39,000  Level San Juan Center
Sat 08:08:01 PM 18.2667 -67.1333 142° Southeast 470 541 39,000  Level San Juan Center
Sat 08:09:01 PM 18.1667 -67.0500 136° Southeast 470 541 39,000  Level San Juan Center
Sat 08:10:02 PM 18.0667 -66.9500 141° Southeast 470 541 39,000  Level San Juan Center
Sat 08:11:02 PM 17.9500 -66.8500 131° Southeast 470 541 39,000  Level San Juan Center
Sat 08:12:02 PM 17.8667 -66.7500 142° Southeast 460 529 39,000  Level San Juan Center
Sat 08:13:03 PM 17.7667 -66.6667 142° Southeast 460 529 39,000  Level San Juan Center
Sat 08:14:03 PM 17.6667 -66.5833 131° Southeast 460 529 39,000  Level San Juan Center
Sat 08:15:04 PM 17.5833 -66.4833 142° Southeast 460 529 39,000  Level San Juan Center
Sat 08:16:04 PM 17.4833 -66.4000 136° Southeast 460 529 39,000  Level San Juan Center
Sat 08:17:04 PM 17.3833 -66.3000 141° Southeast 460 529 39,000  Level San Juan Center
Sat 08:18:04 PM 17.2833 -66.2167 136° Southeast 450 518 39,000  Level San Juan Center
Sat 08:19:05 PM 17.2000 -66.1333 141° Southeast 460 529 39,000  Level San Juan Center
Sat 08:20:05 PM 17.1000 -66.0500 136° Southeast 460 529 39,000  Level San Juan Center
Sat 08:21:06 PM 17.0000 -65.9500 141° Southeast 460 529 39,000  Level San Juan Center
Sat 08:22:06 PM 16.9000 -65.8667 136° Southeast 460 529 39,000  Level San Juan Center
Sat 08:23:07 PM 16.8167 -65.7833 136° Southeast 460 529 39,000  Level San Juan Center
Sat 08:24:07 PM 16.7167 -65.6833 141° Southeast 470 541 39,000  Level San Juan Center
Sat 08:25:07 PM 16.6167 -65.6000 136° Southeast 460 529 39,000  Level San Juan Center
Sat 08:26:08 PM 16.5167 -65.5000 141° Southeast 460 529 39,000  Level San Juan Center
Sat 08:27:08 PM 16.4167 -65.4167 136° Southeast 460 529 39,000  Level San Juan Center
Sat 08:28:08 PM 16.3333 -65.3333 141° Southeast 460 529 39,000  Level San Juan Center
Sat 08:29:09 PM 16.2333 -65.2500 136° Southeast 460 529 39,000  Level San Juan Center
Sat 08:30:08 PM 16.1333 -65.1500 146° Southeast 450 518 39,000  Level San Juan Center
Sat 08:31:09 PM 16.0167 -65.0667 141° Southeast 450 518 39,000  Level San Juan Center
Sat 08:32:09 PM 15.9167 -64.9833 136° Southeast 450 518 39,000  Level San Juan Center
Sat 08:33:10 PM 15.8333 -64.9000 136° Southeast 450 518 39,000  Level San Juan Center
Sat 08:34:10 PM 15.7500 -64.8167 131° Southeast 450 518 39,000  Level San Juan Center
Sat 08:35:10 PM 15.6667 -64.7167 141° Southeast 460 529 39,000  Level San Juan Center
Sat 08:36:11 PM 15.5667 -64.6333 141° Southeast 460 529 39,000  Level San Juan Center
Sat 08:37:11 PM 15.4667 -64.5500 141° Southeast 460 529 39,000  Level San Juan Center
Sat 08:38:11 PM 15.3667 -64.4667 136° Southeast 460 529 39,000  Level San Juan Center
Sat 08:39:12 PM 15.2833 -64.3833 141° Southeast 460 529 39,000  Level San Juan Center
Sat 08:40:12 PM 15.1833 -64.3000 136° Southeast 460 529 39,000  Level San Juan Center
Sat 08:41:12 PM 15.0833 -64.2000 149° Southeast 470 541 39,000  Level San Juan Center
Sat 08:48:32 PM 14.3011 -63.7082 149° Southeast  Level FlightAware Approximate
Sat 08:49:32 PM 14.1937 -63.6419 151° Southeast  Level FlightAware Approximate
Sat 08:50:32 PM 14.0847 -63.5785 149° Southeast  Level FlightAware Approximate
Sat 08:51:32 PM 13.9772 -63.5126 149° Southeast  Level FlightAware Approximate
Sat 08:52:32 PM 13.8697 -63.4466 149° Southeast  Level FlightAware Approximate
Sat 08:53:32 PM 13.7621 -63.3808 149° Southeast  Level FlightAware Approximate
Sat 08:54:32 PM 13.6546 -63.3150 149° Southeast  Level FlightAware Approximate
Sat 08:55:32 PM 13.5470 -63.2493 149° Southeast  Level FlightAware Approximate
Sat 08:56:32 PM 13.4394 -63.1836 149° Southeast  Level FlightAware Approximate
Sat 08:57:32 PM 13.3318 -63.1180 159° South  Level FlightAware Approximate
Sat 08:58:32 PM 13.2154 -63.0720 148° Southeast  Level FlightAware Approximate
Sat 08:59:32 PM 13.1092 -63.0041 148° Southeast  Level FlightAware Approximate
Sat 09:00:32 PM 13.0030 -62.9362 148° Southeast  Level FlightAware Approximate
Sat 09:01:32 PM 12.8967 -62.8684 148° Southeast  Level FlightAware Approximate
Sat 09:02:32 PM 12.7905 -62.8007 149° Southeast  Level FlightAware Approximate
Sat 09:03:32 PM 12.6831 -62.7349 148° Southeast  Level FlightAware Approximate
Sat 09:04:32 PM 12.5768 -62.6672 148° Southeast  Level FlightAware Approximate
Sat 09:05:32 PM 12.4706 -62.5995 149° Southeast  Level FlightAware Approximate
Sat 09:06:32 PM 12.3631 -62.5340 148° Southeast  Level FlightAware Approximate
Sat 09:07:32 PM 12.2568 -62.4663 148° Southeast  Level FlightAware Approximate
Sat 09:08:32 PM 12.1506 -62.3987 148° Southeast  Level FlightAware Approximate
Sat 09:09:32 PM 12.0443 -62.3312 154° Southeast  Level FlightAware Approximate
Sat 09:10:32 PM 11.9341 -62.2767 145° Southeast  Level FlightAware Approximate
Sat 09:11:32 PM 11.8312 -62.2041 149° Southeast  Level FlightAware Approximate
Sat 09:12:32 PM 11.7242 -62.1379 150° Southeast  Level FlightAware Approximate
Sat 09:13:32 PM 11.6164 -62.0731 148° Southeast  Level FlightAware Approximate
Sat 09:14:32 PM 11.5106 -62.0049 151° Southeast  Level FlightAware Approximate
Sat 09:15:32 PM 11.4013 -61.9431 147° Southeast  Level FlightAware Approximate
Sat 09:16:32 PM 11.2960 -61.8742 147° Southeast  Level FlightAware Approximate
Sat 09:17:32 PM 11.1906 -61.8054 147° Southeast  Level FlightAware Approximate
Sat 09:18:32 PM 11.0852 -61.7366 155° Southeast  Level FlightAware Approximate
Sat 09:19:32 PM 10.9722 -61.6827 151° Southeast  Level FlightAware Approximate
Sat 09:20:32 PM 10.8623 -61.6218 144° Southeast  Level FlightAware Approximate
Sat 09:21:32 PM 10.7610 -61.5470 157° South  Level FlightAware Approximate
Sat 09:22:32 PM 10.6476 -61.4984 148° Southeast  Level FlightAware Approximate
Sat 09:23:32 PM 10.5420 -61.4307 145° Southeast  Level FlightAware Approximate
Sat 09:24:32 PM 10.4698 -61.3784 12° North  Level FlightAware Approximate
Sat 09:25:32 PM 10.5921 -61.3516 77° East  Level FlightAware Approximate
Sat 09:26:32 PM 10.6206 -61.2276 222° Southwest  Level Estimated
Sat 09:27:32 PM 10.4500 -61.3833 13° North  Level FlightAware Approximate
Sat 09:28:32 PM 10.5721 -61.3556 38° Northeast  Level FlightAware Approximate
Sat 09:29:32 PM 10.6710 -61.2777 218° Southwest  Level Estimated
Sat 09:30:32 PM 10.5721 -61.3556 38° Northeast  Level Estimated
Sat 09:31:32 PM 10.6710 -61.2777 225° Southwest  Level Estimated
Sat 09:32:32 PM 10.6000 -61.3500 110° East  Level FlightAware Approximate
Sat 09:33:32 PM 10.5566 -61.2306 290° West  Level Estimated
Sat 09:34:32 PM 10.6000 -61.3500 110° East  Level FlightAware Approximate
Sat 09:35:32 PM 10.5566 -61.2306 110° East  Level Estimated

Login

Don't have an account? Register now (free) for customized features, flight alerts, and more!